Terminal Aerodrome Forecast
Issued by NWS Sterling, VA

Current Version | Previous Version | Graphics & Text | Print | Product List | Glossary On
Versions: 1 2 3 4 5 6 7 8 9 10 11 12 13 14 15 16 17 18 19 20 21 22 23 24
000
FTUS41 KLWX 192000 AAA
TAFDCA
TAF AMD
KDCA 192058Z 1921/2018 10007KT P6SM SCT025 BKN050
     FM200200 VRB03KT P6SM BKN050 BKN130
     FM201400 14007KT P6SM BKN070=

USA.gov is the U.S. government's official web portal to all federal, state and local government web resources and services.